sensor_id;sensor_type;location;lat;lon;timestamp;pressure;altitude;pressure_sealevel;temperature;humidity
70015;BME280;57358;51.094;6.760;2023-05-10T00:00:54;100382.25;;;12.83;100.00
70015;BME280;57358;51.094;6.760;2023-05-10T00:03:20;100397.75;;;13.01;100.00
70015;BME280;57358;51.094;6.760;2023-05-10T00:05:47;100401.88;;;13.05;100.00
70015;BME280;57358;51.094;6.760;2023-05-10T00:08:14;100361.56;;;12.64;100.00
70015;BME280;57358;51.094;6.760;2023-05-10T00:10:40;100399.56;;;13.00;100.00
70015;BME280;57358;51.094;6.760;2023-05-10T00:13:07;100361.47;;;12.78;100.00
70015;BME280;57358;51.094;6.760;2023-05-10T00:15:33;100407.13;;;13.05;100.00
70015;BME280;57358;51.094;6.760;2023-05-10T00:18:00;100404.41;;;13.06;100.00
70015;BME280;57358;51.094;6.760;2023-05-10T00:20:30;100341.78;;;12.71;100.00
70015;BME280;57358;51.094;6.760;2023-05-10T00:22:56;100393.34;;;13.01;100.00
70015;BME280;57358;51.094;6.760;2023-05-10T00:25:22;100405.78;;;13.12;100.00
70015;BME280;57358;51.094;6.760;2023-05-10T00:27:49;100376.59;;;13.02;100.00
70015;BME280;57358;51.094;6.760;2023-05-10T00:30:16;100371.53;;;12.99;100.00
70015;BME280;57358;51.094;6.760;2023-05-10T00:32:42;100383.22;;;12.95;100.00
70015;BME280;57358;51.094;6.760;2023-05-10T00:35:09;100374.38;;;12.96;100.00
70015;BME280;57358;51.094;6.760;2023-05-10T00:37:36;100400.19;;;13.16;100.00
70015;BME280;57358;51.094;6.760;2023-05-10T00:40:03;100405.47;;;13.16;100.00
70015;BME280;57358;51.094;6.760;2023-05-10T00:42:29;100402.22;;;13.13;100.00
70015;BME280;57358;51.094;6.760;2023-05-10T00:44:56;100401.25;;;13.14;100.00
70015;BME280;57358;51.094;6.760;2023-05-10T00:47:22;100389.56;;;13.05;100.00
70015;BME280;57358;51.094;6.760;2023-05-10T00:49:49;100400.19;;;13.16;100.00
70015;BME280;57358;51.094;6.760;2023-05-10T00:52:16;100374.06;;;13.01;100.00
70015;BME280;57358;51.094;6.760;2023-05-10T00:54:43;100398.31;;;13.06;100.00
70015;BME280;57358;51.094;6.760;2023-05-10T00:57:09;100385.41;;;12.88;100.00
70015;BME280;57358;51.094;6.760;2023-05-10T00:59:36;100395.75;;;12.91;100.00
70015;BME280;57358;51.094;6.760;2023-05-10T01:02:02;100368.53;;;12.65;100.00
70015;BME280;57358;51.094;6.760;2023-05-10T01:04:29;100380.53;;;12.69;100.00
70015;BME280;57358;51.094;6.760;2023-05-10T01:06:56;100397.41;;;12.80;100.00
70015;BME280;57358;51.094;6.760;2023-05-10T01:09:23;100376.22;;;12.68;100.00
70015;BME280;57358;51.094;6.760;2023-05-10T01:11:54;100369.13;;;12.56;100.00
70015;BME280;57358;51.094;6.760;2023-05-10T01:14:21;100408.78;;;12.80;100.00
70015;BME280;57358;51.094;6.760;2023-05-10T01:16:49;100387.38;;;12.72;100.00
70015;BME280;57358;51.094;6.760;2023-05-10T01:19:20;100370.19;;;12.53;100.00
70015;BME280;57358;51.094;6.760;2023-05-10T01:21:56;100370.09;;;12.55;100.00
70015;BME280;57358;51.094;6.760;2023-05-10T01:25:11;100415.84;;;12.80;100.00
70015;BME280;57358;51.094;6.760;2023-05-10T01:28:07;100401.44;;;12.58;100.00
70015;BME280;57358;51.094;6.760;2023-05-10T01:33:56;100422.94;;;12.65;100.00
70015;BME280;57358;51.094;6.760;2023-05-10T01:36:36;100419.03;;;12.57;100.00
70015;BME280;57358;51.094;6.760;2023-05-10T01:42:10;100421.59;;;12.59;100.00
70015;BME280;57358;51.094;6.760;2023-05-10T01:47:19;100413.72;;;12.45;100.00
70015;BME280;57358;51.094;6.760;2023-05-10T01:49:52;100427.47;;;12.63;100.00
70015;BME280;57358;51.094;6.760;2023-05-10T01:52:24;100423.06;;;12.63;100.00
70015;BME280;57358;51.094;6.760;2023-05-10T01:55:00;100432.13;;;12.59;100.00
70015;BME280;57358;51.094;6.760;2023-05-10T01:57:33;100397.78;;;12.33;100.00
70015;BME280;57358;51.094;6.760;2023-05-10T02:00:01;100426.38;;;12.52;100.00
70015;BME280;57358;51.094;6.760;2023-05-10T02:02:30;100367.44;;;12.28;100.00
70015;BME280;57358;51.094;6.760;2023-05-10T02:04:59;100426.13;;;12.70;100.00
70015;BME280;57358;51.094;6.760;2023-05-10T02:07:26;100381.38;;;12.43;100.00
70015;BME280;57358;51.094;6.760;2023-05-10T02:09:54;100419.44;;;12.51;100.00
70015;BME280;57358;51.094;6.760;2023-05-10T02:12:22;100425.22;;;12.56;100.00
70015;BME280;57358;51.094;6.760;2023-05-10T02:14:50;100422.91;;;12.52;100.00
70015;BME280;57358;51.094;6.760;2023-05-10T02:17:19;100420.59;;;12.47;100.00
70015;BME280;57358;51.094;6.760;2023-05-10T02:19:47;100425.16;;;12.58;100.00
70015;BME280;57358;51.094;6.760;2023-05-10T02:22:15;100394.50;;;12.30;100.00
70015;BME280;57358;51.094;6.760;2023-05-10T02:24:43;100443.06;;;12.66;100.00
70015;BME280;57358;51.094;6.760;2023-05-10T02:27:11;100443.50;;;12.72;100.00
70015;BME280;57358;51.094;6.760;2023-05-10T02:29:39;100403.56;;;12.53;100.00
70015;BME280;57358;51.094;6.760;2023-05-10T02:32:05;100411.34;;;12.54;100.00
70015;BME280;57358;51.094;6.760;2023-05-10T02:34:33;100442.38;;;12.76;100.00
70015;BME280;57358;51.094;6.760;2023-05-10T02:37:00;100443.41;;;12.74;100.00
70015;BME280;57358;51.094;6.760;2023-05-10T02:39:29;100425.69;;;12.63;100.00
70015;BME280;57358;51.094;6.760;2023-05-10T02:41:58;100409.25;;;12.60;100.00
70015;BME280;57358;51.094;6.760;2023-05-10T02:44:27;100427.28;;;12.66;100.00
70015;BME280;57358;51.094;6.760;2023-05-10T02:46:57;100439.00;;;12.74;100.00
70015;BME280;57358;51.094;6.760;2023-05-10T02:49:24;100441.22;;;12.81;100.00
70015;BME280;57358;51.094;6.760;2023-05-10T02:51:54;100439.16;;;12.86;100.00
70015;BME280;57358;51.094;6.760;2023-05-10T02:54:27;100441.09;;;12.69;100.00
70015;BME280;57358;51.094;6.760;2023-05-10T02:56:58;100445.13;;;12.75;100.00
70015;BME280;57358;51.094;6.760;2023-05-10T02:59:27;100444.91;;;12.78;100.00
70015;BME280;57358;51.094;6.760;2023-05-10T03:01:54;100439.94;;;12.73;100.00
70015;BME280;57358;51.094;6.760;2023-05-10T03:04:20;100450.09;;;12.80;100.00
70015;BME280;57358;51.094;6.760;2023-05-10T03:06:48;100453.03;;;12.75;100.00
70015;BME280;57358;51.094;6.760;2023-05-10T03:09:14;100457.63;;;12.71;100.00
70015;BME280;57358;51.094;6.760;2023-05-10T03:12:19;100454.59;;;12.77;100.00
70015;BME280;57358;51.094;6.760;2023-05-10T03:18:20;100461.03;;;12.73;100.00
70015;BME280;57358;51.094;6.760;2023-05-10T03:20:49;100458.16;;;12.76;100.00
70015;BME280;57358;51.094;6.760;2023-05-10T03:23:38;100451.97;;;12.77;100.00
70015;BME280;57358;51.094;6.760;2023-05-10T03:26:07;100444.13;;;12.63;100.00
70015;BME280;57358;51.094;6.760;2023-05-10T03:28:35;100462.28;;;12.81;100.00
70015;BME280;57358;51.094;6.760;2023-05-10T03:31:04;100464.72;;;12.84;100.00
70015;BME280;57358;51.094;6.760;2023-05-10T03:33:32;100467.88;;;12.76;100.00
70015;BME280;57358;51.094;6.760;2023-05-10T03:35:58;100421.78;;;12.56;100.00
70015;BME280;57358;51.094;6.760;2023-05-10T03:38:25;100453.88;;;12.75;100.00
70015;BME280;57358;51.094;6.760;2023-05-10T03:40:54;100479.56;;;12.85;100.00
70015;BME280;57358;51.094;6.760;2023-05-10T03:43:21;100470.19;;;12.81;100.00
70015;BME280;57358;51.094;6.760;2023-05-10T03:45:48;100444.75;;;12.67;100.00
70015;BME280;57358;51.094;6.760;2023-05-10T03:48:15;100477.69;;;12.87;100.00
70015;BME280;57358;51.094;6.760;2023-05-10T03:50:41;100464.19;;;12.78;100.00
70015;BME280;57358;51.094;6.760;2023-05-10T03:53:09;100416.81;;;12.51;100.00
70015;BME280;57358;51.094;6.760;2023-05-10T03:55:35;100483.50;;;12.92;100.00
70015;BME280;57358;51.094;6.760;2023-05-10T03:58:02;100474.69;;;12.93;100.00
70015;BME280;57358;51.094;6.760;2023-05-10T04:00:29;100445.50;;;12.69;100.00
70015;BME280;57358;51.094;6.760;2023-05-10T04:02:56;100488.44;;;12.84;100.00
70015;BME280;57358;51.094;6.760;2023-05-10T04:05:22;100496.50;;;12.95;100.00
70015;BME280;57358;51.094;6.760;2023-05-10T04:07:49;100464.19;;;12.78;100.00
70015;BME280;57358;51.094;6.760;2023-05-10T04:10:17;100489.53;;;12.94;100.00
70015;BME280;57358;51.094;6.760;2023-05-10T04:12:44;100441.94;;;12.70;100.00
70015;BME280;57358;51.094;6.760;2023-05-10T04:15:10;100487.97;;;13.04;100.00
70015;BME280;57358;51.094;6.760;2023-05-10T04:17:37;100458.50;;;12.85;100.00
70015;BME280;57358;51.094;6.760;2023-05-10T04:20:04;100454.59;;;12.77;100.00
70015;BME280;57358;51.094;6.760;2023-05-10T04:22:32;100488.28;;;13.00;100.00
70015;BME280;57358;51.094;6.760;2023-05-10T04:24:58;100463.00;;;12.97;100.00
70015;BME280;57358;51.094;6.760;2023-05-10T04:27:24;100410.44;;;12.68;100.00
70015;BME280;57358;51.094;6.760;2023-05-10T04:29:51;100481.06;;;13.16;100.00
70015;BME280;57358;51.094;6.760;2023-05-10T04:32:17;100474.19;;;13.13;100.00
70015;BME280;57358;51.094;6.760;2023-05-10T04:34:44;100437.84;;;12.78;100.00
70015;BME280;57358;51.094;6.760;2023-05-10T04:37:10;100475.44;;;13.08;100.00
70015;BME280;57358;51.094;6.760;2023-05-10T04:39:37;100422.44;;;12.72;100.00
70015;BME280;57358;51.094;6.760;2023-05-10T04:42:06;100454.22;;;12.96;100.00
70015;BME280;57358;51.094;6.760;2023-05-10T04:44:33;100485.81;;;13.24;100.00
70015;BME280;57358;51.094;6.760;2023-05-10T04:46:59;100483.69;;;13.29;100.00
70015;BME280;57358;51.094;6.760;2023-05-10T04:49:26;100483.28;;;13.22;100.00
70015;BME280;57358;51.094;6.760;2023-05-10T04:51:52;100422.59;;;12.84;100.00
70015;BME280;57358;51.094;6.760;2023-05-10T04:54:19;100457.31;;;13.03;100.00
70015;BME280;57358;51.094;6.760;2023-05-10T04:56:48;100484.75;;;13.13;100.00
70015;BME280;57358;51.094;6.760;2023-05-10T04:59:14;100488.13;;;13.15;100.00
70015;BME280;57358;51.094;6.760;2023-05-10T05:01:41;100474.84;;;13.17;100.00
70015;BME280;57358;51.094;6.760;2023-05-10T05:04:07;100442.44;;;13.02;100.00
70015;BME280;57358;51.094;6.760;2023-05-10T05:06:33;100451.09;;;13.04;100.00
70015;BME280;57358;51.094;6.760;2023-05-10T05:09:00;100491.16;;;13.49;100.00
70015;BME280;57358;51.094;6.760;2023-05-10T05:11:26;100494.63;;;13.50;100.00
70015;BME280;57358;51.094;6.760;2023-05-10T05:13:53;100460.28;;;13.24;100.00
70015;BME280;57358;51.094;6.760;2023-05-10T05:16:19;100422.34;;;13.01;100.00
70015;BME280;57358;51.094;6.760;2023-05-10T05:18:46;100486.19;;;13.45;100.00
70015;BME280;57358;51.094;6.760;2023-05-10T05:21:16;100501.25;;;13.43;100.00
70015;BME280;57358;51.094;6.760;2023-05-10T05:23:43;100485.59;;;13.27;100.00
70015;BME280;57358;51.094;6.760;2023-05-10T05:26:10;100511.19;;;13.25;100.00
70015;BME280;57358;51.094;6.760;2023-05-10T05:28:37;100502.38;;;13.26;100.00
70015;BME280;57358;51.094;6.760;2023-05-10T05:31:04;100450.34;;;13.02;100.00
70015;BME280;57358;51.094;6.760;2023-05-10T05:33:31;100514.56;;;13.41;100.00
70015;BME280;57358;51.094;6.760;2023-05-10T05:36:00;100448.47;;;13.04;100.00
70015;BME280;57358;51.094;6.760;2023-05-10T05:38:27;100473.13;;;13.03;100.00
70015;BME280;57358;51.094;6.760;2023-05-10T05:40:54;100446.16;;;12.72;100.00
70015;BME280;57358;51.094;6.760;2023-05-10T05:43:20;100529.44;;;13.15;100.00
70015;BME280;57358;51.094;6.760;2023-05-10T05:45:47;100458.31;;;12.88;100.00
70015;BME280;57358;51.094;6.760;2023-05-10T05:48:15;100469.44;;;13.06;100.00
70015;BME280;57358;51.094;6.760;2023-05-10T05:50:42;100515.41;;;13.42;100.00
70015;BME280;57358;51.094;6.760;2023-05-10T05:53:08;100523.53;;;13.24;100.00
70015;BME280;57358;51.094;6.760;2023-05-10T05:55:35;100499.06;;;13.09;100.00
70015;BME280;57358;51.094;6.760;2023-05-10T05:58:02;100527.41;;;13.06;100.00
70015;BME280;57358;51.094;6.760;2023-05-10T06:00:28;100482.78;;;12.90;100.00
70015;BME280;57358;51.094;6.760;2023-05-10T06:02:55;100534.72;;;13.28;100.00
70015;BME280;57358;51.094;6.760;2023-05-10T06:05:21;100534.41;;;13.20;100.00
70015;BME280;57358;51.094;6.760;2023-05-10T06:07:48;100353.63;;;11.83;100.00
70015;BME280;57358;51.094;6.760;2023-05-10T06:10:14;100478.97;;;12.67;100.00
70015;BME280;57358;51.094;6.760;2023-05-10T06:12:41;100553.84;;;13.04;100.00
70015;BME280;57358;51.094;6.760;2023-05-10T06:15:08;100510.97;;;12.75;100.00
70015;BME280;57358;51.094;6.760;2023-05-10T06:17:35;100532.25;;;12.85;100.00
70015;BME280;57358;51.094;6.760;2023-05-10T06:20:01;100433.03;;;12.31;100.00
70015;BME280;57358;51.094;6.760;2023-05-10T06:22:28;100469.53;;;12.50;100.00
70015;BME280;57358;51.094;6.760;2023-05-10T06:24:54;100542.38;;;12.91;100.00
70015;BME280;57358;51.094;6.760;2023-05-10T06:27:21;100566.31;;;12.88;100.00
70015;BME280;57358;51.094;6.760;2023-05-10T06:29:50;100567.72;;;12.93;100.00
70015;BME280;57358;51.094;6.760;2023-05-10T06:32:24;100575.03;;;12.88;100.00
70015;BME280;57358;51.094;6.760;2023-05-10T06:34:51;100513.53;;;12.48;100.00
70015;BME280;57358;51.094;6.760;2023-05-10T06:37:19;100563.50;;;12.76;100.00
70015;BME280;57358;51.094;6.760;2023-05-10T06:39:46;100554.72;;;12.63;100.00
70015;BME280;57358;51.094;6.760;2023-05-10T06:42:12;100571.22;;;12.80;100.00
70015;BME280;57358;51.094;6.760;2023-05-10T06:44:39;100526.31;;;12.54;100.00
70015;BME280;57358;51.094;6.760;2023-05-10T06:47:05;100575.00;;;13.03;100.00
70015;BME280;57358;51.094;6.760;2023-05-10T06:49:31;100582.00;;;13.31;100.00
70015;BME280;57358;51.094;6.760;2023-05-10T06:51:58;100592.44;;;13.72;100.00
70015;BME280;57358;51.094;6.760;2023-05-10T06:54:24;100596.31;;;13.67;100.00
70015;BME280;57358;51.094;6.760;2023-05-10T06:56:51;100585.34;;;13.73;100.00
70015;BME280;57358;51.094;6.760;2023-05-10T06:59:17;100556.34;;;13.73;100.00
70015;BME280;57358;51.094;6.760;2023-05-10T07:01:45;100587.81;;;14.14;100.00
70015;BME280;57358;51.094;6.760;2023-05-10T07:04:12;100590.16;;;13.93;100.00
70015;BME280;57358;51.094;6.760;2023-05-10T07:06:39;100328.63;;;12.31;100.00
70015;BME280;57358;51.094;6.760;2023-05-10T07:09:05;100508.88;;;13.47;100.00
70015;BME280;57358;51.094;6.760;2023-05-10T07:11:32;100580.94;;;13.99;100.00
70015;BME280;57358;51.094;6.760;2023-05-10T07:13:58;100582.44;;;13.77;100.00
70015;BME280;57358;51.094;6.760;2023-05-10T07:16:24;100596.78;;;13.99;100.00
70015;BME280;57358;51.094;6.760;2023-05-10T07:18:51;100593.53;;;14.08;100.00
70015;BME280;57358;51.094;6.760;2023-05-10T07:21:19;100519.00;;;13.53;100.00
70015;BME280;57358;51.094;6.760;2023-05-10T07:23:45;100588.78;;;14.01;100.00
70015;BME280;57358;51.094;6.760;2023-05-10T07:26:12;100596.28;;;14.32;100.00
70015;BME280;57358;51.094;6.760;2023-05-10T07:28:38;100535.13;;;14.39;100.00
70015;BME280;57358;51.094;6.760;2023-05-10T07:31:05;100530.53;;;14.66;100.00
70015;BME280;57358;51.094;6.760;2023-05-10T07:33:32;100491.03;;;14.02;100.00
70015;BME280;57358;51.094;6.760;2023-05-10T07:35:58;100570.25;;;14.65;100.00
70015;BME280;57358;51.094;6.760;2023-05-10T07:38:24;100584.63;;;14.73;100.00
70015;BME280;57358;51.094;6.760;2023-05-10T07:40:51;100582.63;;;14.64;100.00
70015;BME280;57358;51.094;6.760;2023-05-10T07:43:17;100535.66;;;14.31;100.00
70015;BME280;57358;51.094;6.760;2023-05-10T07:45:44;100531.66;;;14.12;100.00
70015;BME280;57358;51.094;6.760;2023-05-10T07:48:10;100582.97;;;14.08;100.00
70015;BME280;57358;51.094;6.760;2023-05-10T07:50:37;100476.91;;;13.39;100.00
70015;BME280;57358;51.094;6.760;2023-05-10T07:53:03;100590.25;;;13.92;100.00
70015;BME280;57358;51.094;6.760;2023-05-10T07:55:30;100594.69;;;13.91;100.00
70015;BME280;57358;51.094;6.760;2023-05-10T07:57:56;100593.41;;;13.84;100.00
70015;BME280;57358;51.094;6.760;2023-05-10T08:00:23;100595.38;;;13.68;100.00
70015;BME280;57358;51.094;6.760;2023-05-10T08:02:49;100587.28;;;13.84;100.00
70015;BME280;57358;51.094;6.760;2023-05-10T08:05:16;100567.88;;;13.85;100.00
70015;BME280;57358;51.094;6.760;2023-05-10T08:07:42;100605.69;;;14.24;100.00
70015;BME280;57358;51.094;6.760;2023-05-10T08:10:09;100589.31;;;14.06;100.00
70015;BME280;57358;51.094;6.760;2023-05-10T08:12:37;100582.34;;;14.30;100.00
70015;BME280;57358;51.094;6.760;2023-05-10T08:15:04;100562.72;;;14.22;100.00
70015;BME280;57358;51.094;6.760;2023-05-10T08:17:31;100597.84;;;14.61;100.00
70015;BME280;57358;51.094;6.760;2023-05-10T08:19:58;100598.31;;;14.91;100.00
70015;BME280;57358;51.094;6.760;2023-05-10T08:22:24;100597.25;;;15.18;100.00
70015;BME280;57358;51.094;6.760;2023-05-10T08:24:50;100591.25;;;15.16;100.00
70015;BME280;57358;51.094;6.760;2023-05-10T08:27:17;100603.03;;;15.47;100.00
70015;BME280;57358;51.094;6.760;2023-05-10T08:29:43;100524.19;;;15.17;100.00
70015;BME280;57358;51.094;6.760;2023-05-10T08:32:16;100588.69;;;15.98;100.00
70015;BME280;57358;51.094;6.760;2023-05-10T08:34:42;100585.78;;;16.01;100.00
70015;BME280;57358;51.094;6.760;2023-05-10T08:37:09;100576.97;;;15.78;100.00
70015;BME280;57358;51.094;6.760;2023-05-10T08:39:39;100521.50;;;15.41;100.00
70015;BME280;57358;51.094;6.760;2023-05-10T08:42:06;100536.69;;;15.50;100.00
70015;BME280;57358;51.094;6.760;2023-05-10T08:44:34;100575.53;;;15.50;100.00
70015;BME280;57358;51.094;6.760;2023-05-10T08:47:04;100573.66;;;15.39;100.00
70015;BME280;57358;51.094;6.760;2023-05-10T08:49:32;100544.00;;;15.11;100.00
70015;BME280;57358;51.094;6.760;2023-05-10T08:52:02;100578.19;;;15.26;100.00
70015;BME280;57358;51.094;6.760;2023-05-10T08:54:31;100519.88;;;14.92;100.00
70015;BME280;57358;51.094;6.760;2023-05-10T08:56:58;100553.78;;;15.22;100.00
70015;BME280;57358;51.094;6.760;2023-05-10T08:59:24;100490.81;;;14.68;100.00
70015;BME280;57358;51.094;6.760;2023-05-10T09:01:52;100502.50;;;14.76;100.00
70015;BME280;57358;51.094;6.760;2023-05-10T09:04:20;100490.75;;;14.44;100.00
70015;BME280;57358;51.094;6.760;2023-05-10T09:06:47;100351.31;;;13.64;100.00
70015;BME280;57358;51.094;6.760;2023-05-10T09:09:14;100544.31;;;14.83;100.00
70015;BME280;57358;51.094;6.760;2023-05-10T09:11:43;100555.81;;;15.19;100.00
70015;BME280;57358;51.094;6.760;2023-05-10T09:14:09;100601.34;;;15.46;100.00
70015;BME280;57358;51.094;6.760;2023-05-10T09:16:39;100526.28;;;14.76;100.00
70015;BME280;57358;51.094;6.760;2023-05-10T09:19:06;100583.94;;;14.95;100.00
70015;BME280;57358;51.094;6.760;2023-05-10T09:21:35;100521.63;;;14.30;100.00
70015;BME280;57358;51.094;6.760;2023-05-10T09:24:07;100595.06;;;14.75;100.00
70015;BME280;57358;51.094;6.760;2023-05-10T09:26:35;100517.59;;;14.25;100.00
70015;BME280;57358;51.094;6.760;2023-05-10T09:29:02;100543.28;;;14.23;100.00
70015;BME280;57358;51.094;6.760;2023-05-10T09:32:01;100609.97;;;14.50;100.00
70015;BME280;57358;51.094;6.760;2023-05-10T09:34:32;100618.25;;;14.46;100.00
70015;BME280;57358;51.094;6.760;2023-05-10T09:37:02;100622.78;;;14.56;100.00
70015;BME280;57358;51.094;6.760;2023-05-10T09:39:33;100623.00;;;14.66;100.00
70015;BME280;57358;51.094;6.760;2023-05-10T09:42:02;100624.00;;;14.89;100.00
70015;BME280;57358;51.094;6.760;2023-05-10T09:44:31;100538.94;;;14.34;100.00
70015;BME280;57358;51.094;6.760;2023-05-10T09:46:57;100602.34;;;14.84;100.00
70015;BME280;57358;51.094;6.760;2023-05-10T09:49:24;100615.31;;;15.00;100.00
70015;BME280;57358;51.094;6.760;2023-05-10T09:52:04;100553.28;;;14.56;100.00
70015;BME280;57358;51.094;6.760;2023-05-10T09:54:32;100622.78;;;15.06;100.00
70015;BME280;57358;51.094;6.760;2023-05-10T09:56:59;100616.44;;;15.09;100.00
70015;BME280;57358;51.094;6.760;2023-05-10T09:59:26;100585.78;;;15.06;100.00
70015;BME280;57358;51.094;6.760;2023-05-10T10:01:58;100611.31;;;15.43;100.00
70015;BME280;57358;51.094;6.760;2023-05-10T10:04:26;100616.66;;;15.89;100.00
70015;BME280;57358;51.094;6.760;2023-05-10T10:07:03;100564.44;;;15.45;95.14
70015;BME280;57358;51.094;6.760;2023-05-10T10:09:31;100594.94;;;15.62;94.38
70015;BME280;57358;51.094;6.760;2023-05-10T10:11:59;100561.38;;;15.27;94.21
70015;BME280;57358;51.094;6.760;2023-05-10T10:14:26;100579.22;;;15.47;94.30
70015;BME280;57358;51.094;6.760;2023-05-10T10:16:52;100601.53;;;15.91;93.54
70015;BME280;57358;51.094;6.760;2023-05-10T10:19:35;100584.94;;;16.01;91.26
70015;BME280;57358;51.094;6.760;2023-05-10T10:22:03;100587.38;;;16.04;91.75
70015;BME280;57358;51.094;6.760;2023-05-10T10:24:30;100584.28;;;16.44;90.26
70015;BME280;57358;51.094;6.760;2023-05-10T10:27:01;100564.72;;;16.67;86.20
70015;BME280;57358;51.094;6.760;2023-05-10T10:29:39;100506.44;;;16.67;82.14
70015;BME280;57358;51.094;6.760;2023-05-10T10:32:33;100507.16;;;16.69;80.52
70015;BME280;57358;51.094;6.760;2023-05-10T10:35:04;100504.66;;;16.45;81.03
70015;BME280;57358;51.094;6.760;2023-05-10T10:37:47;100498.56;;;16.00;81.77
70015;BME280;57358;51.094;6.760;2023-05-10T10:40:26;100542.25;;;16.17;85.30
70015;BME280;57358;51.094;6.760;2023-05-10T10:42:54;100564.25;;;16.62;86.57
70015;BME280;57358;51.094;6.760;2023-05-10T10:45:21;100553.75;;;16.83;84.54
70015;BME280;57358;51.094;6.760;2023-05-10T10:47:48;100519.50;;;16.48;83.25
70015;BME280;57358;51.094;6.760;2023-05-10T10:50:16;100491.56;;;16.21;82.37
70015;BME280;57358;51.094;6.760;2023-05-10T10:52:43;100505.66;;;16.33;83.05
70015;BME280;57358;51.094;6.760;2023-05-10T10:55:14;100458.00;;;16.22;82.78
70015;BME280;57358;51.094;6.760;2023-05-10T10:57:48;100469.28;;;16.46;81.65
70015;BME280;57358;51.094;6.760;2023-05-10T11:00:19;100396.41;;;16.08;81.87
70015;BME280;57358;51.094;6.760;2023-05-10T11:05:50;100474.91;;;17.29;79.26
70015;BME280;57358;51.094;6.760;2023-05-10T11:08:32;100529.69;;;17.40;80.28
70015;BME280;57358;51.094;6.760;2023-05-10T11:11:04;100473.19;;;16.74;78.69
70015;BME280;57358;51.094;6.760;2023-05-10T11:13:42;100485.88;;;16.48;80.19
70015;BME280;57358;51.094;6.760;2023-05-10T11:16:23;100494.28;;;16.53;81.29
70015;BME280;57358;51.094;6.760;2023-05-10T11:19:01;100446.75;;;16.52;80.84
70015;BME280;57358;51.094;6.760;2023-05-10T11:21:33;100479.50;;;16.51;80.82
70015;BME280;57358;51.094;6.760;2023-05-10T11:24:01;100500.56;;;16.41;82.09
70015;BME280;57358;51.094;6.760;2023-05-10T11:26:34;100479.06;;;16.01;81.75
70015;BME280;57358;51.094;6.760;2023-05-10T11:29:01;100453.16;;;15.70;83.88
70015;BME280;57358;51.094;6.760;2023-05-10T11:31:28;100480.47;;;15.71;85.99
70015;BME280;57358;51.094;6.760;2023-05-10T11:33:57;100543.78;;;15.97;88.18
70015;BME280;57358;51.094;6.760;2023-05-10T11:36:32;100552.34;;;16.00;88.73
70015;BME280;57358;51.094;6.760;2023-05-10T11:38:59;100561.84;;;16.03;89.47
70015;BME280;57358;51.094;6.760;2023-05-10T11:41:27;100554.28;;;15.63;89.16
70015;BME280;57358;51.094;6.760;2023-05-10T11:43:55;100548.41;;;15.70;90.98
70015;BME280;57358;51.094;6.760;2023-05-10T11:46:24;100560.38;;;15.76;88.77
70015;BME280;57358;51.094;6.760;2023-05-10T11:48:52;100415.41;;;14.99;89.32
70015;BME280;57358;51.094;6.760;2023-05-10T11:51:23;100546.88;;;15.79;88.43
70015;BME280;57358;51.094;6.760;2023-05-10T11:53:53;100545.09;;;15.91;87.50
70015;BME280;57358;51.094;6.760;2023-05-10T11:56:19;100564.63;;;16.35;87.75
70015;BME280;57358;51.094;6.760;2023-05-10T11:58:53;100532.44;;;16.73;86.00
70015;BME280;57358;51.094;6.760;2023-05-10T12:01:20;100515.00;;;16.82;82.10
70015;BME280;57358;51.094;6.760;2023-05-10T12:03:48;100515.19;;;16.79;79.52
70015;BME280;57358;51.094;6.760;2023-05-10T12:06:15;100424.25;;;16.46;78.74
70015;BME280;57358;51.094;6.760;2023-05-10T12:08:49;100467.81;;;16.53;79.95
70015;BME280;57358;51.094;6.760;2023-05-10T12:11:20;100490.53;;;16.67;78.85
70015;BME280;57358;51.094;6.760;2023-05-10T12:13:47;100499.56;;;16.65;79.05
70015;BME280;57358;51.094;6.760;2023-05-10T12:16:21;100491.38;;;16.68;78.71
70015;BME280;57358;51.094;6.760;2023-05-10T12:18:48;100461.56;;;16.54;77.72
70015;BME280;57358;51.094;6.760;2023-05-10T12:21:15;100310.19;;;15.49;78.31
70015;BME280;57358;51.094;6.760;2023-05-10T12:23:42;100497.25;;;16.71;78.48
70015;BME280;57358;51.094;6.760;2023-05-10T12:26:11;100465.94;;;16.88;77.88
70015;BME280;57358;51.094;6.760;2023-05-10T12:28:38;100468.91;;;16.94;76.54
70015;BME280;57358;51.094;6.760;2023-05-10T12:31:06;100468.69;;;16.43;77.76
70015;BME280;57358;51.094;6.760;2023-05-10T12:33:40;100429.03;;;16.64;77.59
70015;BME280;57358;51.094;6.760;2023-05-10T12:36:09;100243.03;;;15.95;76.73
70015;BME280;57358;51.094;6.760;2023-05-10T12:38:44;100462.03;;;17.24;76.50
70015;BME280;57358;51.094;6.760;2023-05-10T12:41:17;100453.22;;;17.24;75.55
70015;BME280;57358;51.094;6.760;2023-05-10T12:43:44;100412.97;;;16.98;74.04
70015;BME280;57358;51.094;6.760;2023-05-10T12:46:16;100448.44;;;17.18;74.70
70015;BME280;57358;51.094;6.760;2023-05-10T12:48:43;100454.69;;;17.38;75.17
70015;BME280;57358;51.094;6.760;2023-05-10T12:51:10;100282.91;;;16.89;72.75
70015;BME280;57358;51.094;6.760;2023-05-10T12:53:39;100341.72;;;16.83;72.96
70015;BME280;57358;51.094;6.760;2023-05-10T12:56:09;100450.75;;;17.74;73.18
70015;BME280;57358;51.094;6.760;2023-05-10T12:58:36;100401.97;;;18.06;70.98
70015;BME280;57358;51.094;6.760;2023-05-10T13:01:02;100341.03;;;17.94;70.05
70015;BME280;57358;51.094;6.760;2023-05-10T13:03:30;100356.03;;;18.64;68.55
70015;BME280;57358;51.094;6.760;2023-05-10T13:05:56;100222.78;;;18.10;67.35